createdAt,value
2023-02-09T00:01:32.829Z,-5.24
2023-02-09T00:04:02.869Z,-5.03
2023-02-09T00:06:33.465Z,-5.03
2023-02-09T00:09:03.694Z,-5.48
2023-02-09T00:11:52.159Z,-5.55
2023-02-09T00:14:22.322Z,-5.71
2023-02-09T00:16:53.174Z,-5.87
2023-02-09T00:19:22.928Z,-5.72
2023-02-09T00:21:52.580Z,-5.61
2023-02-09T00:24:22.400Z,-5.90
2023-02-09T00:26:50.359Z,-5.71
2023-02-09T00:29:25.391Z,-5.50
2023-02-09T00:31:55.209Z,-5.61
2023-02-09T00:34:24.798Z,-5.62
2023-02-09T00:36:54.355Z,-5.86
2023-02-09T00:39:23.954Z,-5.72
2023-02-09T00:42:07.888Z,-5.68
2023-02-09T00:44:40.332Z,-6.01
2023-02-09T00:47:09.982Z,-5.87
2023-02-09T00:49:40.212Z,-5.74
2023-02-09T00:52:10.228Z,-5.72
2023-02-09T00:54:39.948Z,-5.81
2023-02-09T00:57:09.770Z,-5.74
2023-02-09T00:59:40.919Z,-5.90
2023-02-09T01:02:09.755Z,-5.70
2023-02-09T01:04:39.615Z,-5.70
2023-02-09T01:07:09.236Z,-5.98
2023-02-09T01:09:38.803Z,-6.11
2023-02-09T01:12:08.479Z,-6.21
2023-02-09T01:14:39.354Z,-5.83
2023-02-09T01:17:46.075Z,-5.72
2023-02-09T01:20:16.659Z,-5.63
2023-02-09T01:22:46.223Z,-5.63
2023-02-09T01:25:15.810Z,-5.78
2023-02-09T01:27:45.407Z,-5.56
2023-02-09T01:30:15.799Z,-5.74
2023-02-09T01:32:45.372Z,-5.72
2023-02-09T01:35:14.890Z,-5.83
2023-02-09T01:37:44.426Z,-5.85
2023-02-09T01:40:13.981Z,-5.80
2023-02-09T01:42:43.587Z,-6.05
2023-02-09T01:45:30.821Z,-5.79
2023-02-09T01:48:04.578Z,-5.78
2023-02-09T01:50:44.351Z,-5.75
2023-02-09T01:53:14.246Z,-6.18
2023-02-09T01:56:08.329Z,-6.08
2023-02-09T01:58:38.117Z,-6.21
2023-02-09T02:01:07.752Z,-6.55
2023-02-09T02:03:36.647Z,-6.42
2023-02-09T02:06:17.120Z,-6.66
2023-02-09T02:09:05.059Z,-6.59
2023-02-09T02:11:34.832Z,-6.42
2023-02-09T02:14:04.415Z,-6.31
2023-02-09T02:16:38.962Z,-6.45
2023-02-09T02:20:01.363Z,-6.64
2023-02-09T02:22:42.545Z,-6.65
2023-02-09T02:25:41.138Z,-6.35
2023-02-09T02:28:30.680Z,-6.33
2023-02-09T02:32:05.507Z,-6.25
2023-02-09T02:35:21.587Z,-6.44
2023-02-09T02:38:07.103Z,-6.32
2023-02-09T02:40:50.858Z,-6.43
2023-02-09T02:43:25.565Z,-6.36
2023-02-09T02:46:03.734Z,-6.44
2023-02-09T02:48:46.193Z,-6.59
2023-02-09T02:51:30.851Z,-6.18
2023-02-09T02:54:13.850Z,-6.21
2023-02-09T02:57:06.381Z,-6.26
2023-02-09T02:59:46.378Z,-6.59
2023-02-09T03:02:23.934Z,-6.90
2023-02-09T03:04:56.438Z,-6.72
2023-02-09T03:07:26.136Z,-6.41
2023-02-09T03:09:57.970Z,-6.48
2023-02-09T03:13:30.925Z,-6.71
2023-02-09T03:16:40.054Z,-7.09
2023-02-09T03:19:52.984Z,-6.82
2023-02-09T03:22:49.241Z,-7.00
2023-02-09T03:25:35.564Z,-7.28
2023-02-09T03:28:23.063Z,-7.29
2023-02-09T03:30:54.304Z,-7.45
2023-02-09T03:33:29.401Z,-7.30
2023-02-09T03:36:02.183Z,-7.02
2023-02-09T03:38:31.747Z,-7.22
2023-02-09T03:41:01.368Z,-7.05
2023-02-09T03:43:49.634Z,-6.71
2023-02-09T03:46:19.274Z,-7.08
2023-02-09T03:48:50.781Z,-7.12
2023-02-09T03:51:18.612Z,-7.16
2023-02-09T03:53:48.286Z,-7.02
2023-02-09T03:56:17.949Z,-7.07
2023-02-09T03:58:47.608Z,-6.94
2023-02-09T04:01:17.649Z,-6.82
2023-02-09T04:03:46.531Z,-7.04
2023-02-09T04:06:16.068Z,-7.15
2023-02-09T04:08:45.770Z,-7.12
2023-02-09T04:11:15.317Z,-6.94
2023-02-09T04:13:44.901Z,-7.19
2023-02-09T04:16:13.746Z,-7.15
2023-02-09T04:18:42.530Z,-7.06
2023-02-09T04:21:11.734Z,-6.96
2023-02-09T04:23:41.337Z,-6.89
2023-02-09T04:26:11.001Z,-6.97
2023-02-09T04:28:40.562Z,-6.91
2023-02-09T04:31:10.455Z,-7.38
2023-02-09T04:33:40.344Z,-7.35
2023-02-09T04:36:11.189Z,-7.19
2023-02-09T04:38:41.000Z,-7.15
2023-02-09T04:41:11.258Z,-7.18
2023-02-09T04:43:41.052Z,-7.09
2023-02-09T04:46:18.763Z,-7.14
2023-02-09T04:48:48.478Z,-7.33
2023-02-09T04:51:18.288Z,-7.35
2023-02-09T04:53:47.997Z,-7.35
2023-02-09T04:56:18.596Z,-7.29
2023-02-09T04:59:06.560Z,-7.20
2023-02-09T05:01:36.322Z,-7.42
2023-02-09T05:04:06.103Z,-7.69
2023-02-09T05:06:35.911Z,-7.75
2023-02-09T05:09:05.616Z,-7.76
2023-02-09T05:11:35.431Z,-7.44
2023-02-09T05:14:05.214Z,-7.53
2023-02-09T05:16:35.022Z,-7.70
2023-02-09T05:19:05.312Z,-7.61
2023-02-09T05:21:35.029Z,-7.60
2023-02-09T05:24:05.301Z,-7.49
2023-02-09T05:26:34.986Z,-7.35
2023-02-09T05:29:05.184Z,-7.30
2023-02-09T05:31:35.079Z,-7.23
2023-02-09T05:34:04.839Z,-7.25
2023-02-09T05:36:34.527Z,-7.83
2023-02-09T05:39:03.402Z,-7.98
2023-02-09T05:41:51.518Z,-7.78
2023-02-09T05:44:21.139Z,-7.88
2023-02-09T05:46:50.868Z,-7.80
2023-02-09T05:49:20.599Z,-7.63
2023-02-09T05:51:50.368Z,-7.60
2023-02-09T05:54:20.121Z,-7.59
2023-02-09T05:56:49.740Z,-7.31
2023-02-09T05:59:18.666Z,-7.13
2023-02-09T06:01:48.370Z,-7.26
2023-02-09T06:04:18.067Z,-7.21
2023-02-09T06:06:48.092Z,-7.35
2023-02-09T06:09:17.829Z,-7.26
2023-02-09T06:11:48.145Z,-7.34
2023-02-09T06:14:18.686Z,-7.41
2023-02-09T06:16:48.778Z,-7.64
2023-02-09T06:19:21.547Z,-7.61
2023-02-09T06:21:51.329Z,-7.73
2023-02-09T06:24:21.055Z,-7.66
2023-02-09T06:26:50.833Z,-7.46
2023-02-09T06:29:20.618Z,-7.38
2023-02-09T06:31:50.482Z,-6.81
2023-02-09T06:34:20.297Z,-5.16
2023-02-09T06:36:49.980Z,-5.37
2023-02-09T06:39:19.698Z,-5.17
2023-02-09T06:41:49.642Z,-4.87
2023-02-09T06:44:19.817Z,-4.95
2023-02-09T06:46:49.495Z,-5.17
2023-02-09T06:49:21.973Z,-4.25
2023-02-09T06:51:51.984Z,-3.40
2023-02-09T06:54:22.841Z,-3.64
2023-02-09T06:56:52.717Z,-2.47
2023-02-09T06:59:22.787Z,-2.47
2023-02-09T07:01:54.981Z,-0.64
2023-02-09T07:04:24.837Z,-1.30
2023-02-09T07:06:54.496Z,-0.65
2023-02-09T07:09:23.224Z,-0.39
2023-02-09T07:11:52.840Z,0.67
2023-02-09T07:14:22.566Z,1.15
2023-02-09T07:16:52.204Z,1.66
2023-02-09T07:19:22.305Z,2.53
2023-02-09T07:21:52.040Z,2.69
2023-02-09T07:24:22.682Z,2.52
2023-02-09T07:26:53.228Z,2.71
2023-02-09T07:29:22.918Z,2.51
2023-02-09T07:31:52.598Z,3.49
2023-02-09T07:34:22.265Z,3.62
2023-02-09T07:36:51.905Z,4.18
2023-02-09T07:39:21.533Z,3.69
2023-02-09T07:41:51.148Z,3.96
2023-02-09T07:44:20.650Z,3.87
2023-02-09T07:46:50.315Z,-0.72
2023-02-09T07:49:20.231Z,-0.77
2023-02-09T07:51:49.764Z,-1.58
2023-02-09T07:54:19.407Z,-1.45
2023-02-09T07:56:48.943Z,-0.89
2023-02-09T07:59:18.516Z,-1.58
2023-02-09T08:01:48.149Z,-1.44
2023-02-09T08:04:17.881Z,-0.82
2023-02-09T08:06:47.733Z,-0.56
2023-02-09T08:09:17.394Z,-0.19
2023-02-09T08:11:57.522Z,-0.81
2023-02-09T08:14:38.437Z,-0.73
2023-02-09T08:17:28.114Z,-0.63
2023-02-09T08:20:12.239Z,-0.43
2023-02-09T08:22:48.407Z,-0.22
2023-02-09T08:25:20.531Z,-0.56
2023-02-09T08:27:50.032Z,-0.91
2023-02-09T08:30:19.739Z,-0.28
2023-02-09T08:32:49.258Z,0.04
2023-02-09T08:35:20.231Z,-0.03
2023-02-09T08:37:48.104Z,-0.85
2023-02-09T08:40:17.933Z,-0.36
2023-02-09T08:42:47.499Z,-0.04
2023-02-09T08:45:16.474Z,0.31
2023-02-09T08:47:46.239Z,0.21
2023-02-09T08:50:16.630Z,-0.55
2023-02-09T08:52:46.324Z,0.09
2023-02-09T08:55:15.965Z,0.48
2023-02-09T08:57:45.519Z,0.19
2023-02-09T09:00:16.230Z,0.60
2023-02-09T09:02:45.825Z,0.99
2023-02-09T09:05:15.438Z,0.99
2023-02-09T09:07:43.309Z,1.00
2023-02-09T09:10:13.058Z,0.71
2023-02-09T09:12:42.663Z,0.76
2023-02-09T09:15:12.285Z,1.07
2023-02-09T09:17:42.402Z,1.27
2023-02-09T09:20:12.369Z,1.15
2023-02-09T09:22:41.938Z,1.30
2023-02-09T09:25:11.566Z,1.35
2023-02-09T09:27:43.214Z,1.47
2023-02-09T09:30:12.989Z,1.86
2023-02-09T09:32:41.807Z,1.63
2023-02-09T09:35:10.561Z,1.70
2023-02-09T09:37:38.362Z,1.53
2023-02-09T09:40:10.000Z,1.61
2023-02-09T09:42:44.783Z,1.69
2023-02-09T09:45:21.881Z,1.64
2023-02-09T09:47:51.345Z,1.32
2023-02-09T09:50:30.632Z,1.85
2023-02-09T09:53:33.478Z,1.67
2023-02-09T09:56:08.775Z,2.28
2023-02-09T09:58:43.744Z,2.58
2023-02-09T10:01:20.124Z,2.42
2023-02-09T10:03:50.129Z,2.56
2023-02-09T10:06:23.832Z,2.00
2023-02-09T10:09:03.911Z,2.30
2023-02-09T10:12:07.591Z,2.18
2023-02-09T10:14:36.283Z,1.84
2023-02-09T10:17:06.136Z,2.43
2023-02-09T10:19:35.711Z,2.70
2023-02-09T10:22:04.890Z,2.64
2023-02-09T10:24:37.246Z,2.70
2023-02-09T10:27:29.863Z,2.30
2023-02-09T10:30:28.418Z,2.60
2023-02-09T10:33:01.008Z,2.61
2023-02-09T10:35:58.795Z,2.96
2023-02-09T10:38:33.507Z,3.03
2023-02-09T10:41:03.232Z,2.53
2023-02-09T10:43:35.564Z,2.41
2023-02-09T10:46:18.028Z,2.82
2023-02-09T10:48:48.438Z,3.10
2023-02-09T10:51:30.179Z,3.17
2023-02-09T10:54:09.865Z,3.47
2023-02-09T10:56:46.843Z,3.42
2023-02-09T10:59:24.639Z,3.35
2023-02-09T11:02:02.700Z,3.46
2023-02-09T11:04:41.270Z,3.19
2023-02-09T11:07:21.373Z,3.19
2023-02-09T11:09:53.443Z,2.98
2023-02-09T11:12:23.093Z,3.48
2023-02-09T11:14:52.556Z,3.52
2023-02-09T11:17:40.216Z,3.19
2023-02-09T11:20:33.761Z,3.76
2023-02-09T11:23:50.400Z,3.52
2023-02-09T11:27:26.844Z,3.24
2023-02-09T11:30:47.455Z,3.51
2023-02-09T11:34:03.976Z,3.80
2023-02-09T11:37:16.512Z,3.58
2023-02-09T11:40:19.909Z,3.60
2023-02-09T11:43:11.116Z,3.70
2023-02-09T11:45:59.699Z,3.61
2023-02-09T11:48:56.386Z,3.32
2023-02-09T11:51:27.008Z,3.66
2023-02-09T11:54:17.808Z,3.56
2023-02-09T11:56:56.193Z,3.67
2023-02-09T11:59:39.601Z,3.56
2023-02-09T12:02:32.385Z,3.72
2023-02-09T12:05:03.890Z,3.54
2023-02-09T12:07:56.495Z,3.37
2023-02-09T12:11:06.084Z,3.73
2023-02-09T12:14:09.438Z,4.06
2023-02-09T12:16:47.749Z,3.88
2023-02-09T12:19:38.447Z,3.64
2023-02-09T12:22:35.773Z,3.77
2023-02-09T12:26:01.387Z,3.42
2023-02-09T12:28:30.845Z,3.93
2023-02-09T12:31:09.091Z,3.84
2023-02-09T12:34:10.512Z,3.95
2023-02-09T12:37:12.995Z,4.27
2023-02-09T12:40:07.435Z,4.21
2023-02-09T12:42:47.237Z,4.01
2023-02-09T12:45:39.745Z,3.64
2023-02-09T12:48:09.115Z,3.47
2023-02-09T12:50:53.252Z,3.36
2023-02-09T12:53:24.832Z,3.99
2023-02-09T12:56:09.189Z,3.94
2023-02-09T12:58:44.336Z,3.86
2023-02-09T13:01:16.438Z,3.84
2023-02-09T13:04:00.173Z,3.85
2023-02-09T13:06:43.842Z,3.72
2023-02-09T13:09:39.616Z,3.81
2023-02-09T13:12:20.452Z,4.04
2023-02-09T13:14:51.784Z,3.95
2023-02-09T13:18:15.702Z,3.28
2023-02-09T13:21:57.892Z,3.64
2023-02-09T13:24:57.067Z,3.88
2023-02-09T13:27:29.229Z,3.97
2023-02-09T13:30:00.226Z,3.70
2023-02-09T13:33:09.254Z,3.85
2023-02-09T13:36:25.623Z,3.81
2023-02-09T13:38:55.108Z,4.16
2023-02-09T13:41:44.870Z,4.01
2023-02-09T13:44:27.804Z,4.03
2023-02-09T13:47:02.392Z,4.00
2023-02-09T13:49:31.841Z,4.07
2023-02-09T13:52:22.316Z,3.81
2023-02-09T13:54:52.987Z,4.01
2023-02-09T13:57:35.680Z,3.64
2023-02-09T14:00:45.899Z,3.81
2023-02-09T14:03:30.306Z,3.74
2023-02-09T14:06:37.274Z,3.72
2023-02-09T14:09:23.333Z,3.69
2023-02-09T14:12:02.035Z,3.91
2023-02-09T14:15:01.565Z,3.53
2023-02-09T14:17:35.415Z,3.68
2023-02-09T14:20:04.392Z,3.68
2023-02-09T14:22:40.041Z,3.70
2023-02-09T14:25:14.463Z,3.51
2023-02-09T14:27:48.282Z,3.38
2023-02-09T14:30:27.013Z,3.39
2023-02-09T14:32:59.124Z,3.51
2023-02-09T14:35:36.814Z,3.42
2023-02-09T14:38:34.858Z,3.16
2023-02-09T14:41:33.050Z,3.38
2023-02-09T14:44:23.555Z,3.37
2023-02-09T14:46:59.178Z,3.30
2023-02-09T14:49:29.740Z,3.09
2023-02-09T14:52:14.215Z,2.91
2023-02-09T14:54:51.465Z,2.99
2023-02-09T14:57:20.340Z,2.94
2023-02-09T14:59:50.540Z,2.67
2023-02-09T15:02:24.430Z,2.61
2023-02-09T15:04:54.697Z,2.37
2023-02-09T15:07:38.973Z,2.70
2023-02-09T15:10:32.835Z,2.54
2023-02-09T15:13:03.233Z,2.69
2023-02-09T15:15:33.389Z,2.49
2023-02-09T15:18:02.174Z,2.20
2023-02-09T15:20:32.573Z,2.17
2023-02-09T15:23:02.096Z,2.10
2023-02-09T15:25:31.676Z,2.02
2023-02-09T15:28:02.977Z,1.93
2023-02-09T15:30:35.649Z,1.92
2023-02-09T15:33:06.447Z,1.75
2023-02-09T15:35:36.116Z,1.64
2023-02-09T15:38:04.329Z,1.68
2023-02-09T15:41:09.539Z,1.72
2023-02-09T15:44:02.112Z,1.66
2023-02-09T15:46:50.340Z,1.29
2023-02-09T15:49:19.992Z,1.10
2023-02-09T15:51:49.811Z,1.00
2023-02-09T15:54:22.399Z,0.76
2023-02-09T15:56:51.903Z,0.65
2023-02-09T15:59:23.599Z,0.36
2023-02-09T16:01:52.649Z,0.33
2023-02-09T16:04:21.443Z,0.25
2023-02-09T16:06:53.950Z,0.30
2023-02-09T16:09:28.399Z,0.14
2023-02-09T16:11:58.033Z,0.30
2023-02-09T16:14:28.430Z,0.15
2023-02-09T16:16:58.151Z,-0.22
2023-02-09T16:19:27.780Z,-0.34
2023-02-09T16:22:02.457Z,-0.60
2023-02-09T16:24:45.323Z,-0.54
2023-02-09T16:27:30.462Z,-0.61
2023-02-09T16:30:00.598Z,-0.49
2023-02-09T16:32:30.230Z,-0.46
2023-02-09T16:35:14.556Z,-0.48
2023-02-09T16:37:50.259Z,-0.56
2023-02-09T16:40:27.021Z,-0.50
2023-02-09T16:43:01.755Z,-0.82
2023-02-09T16:45:37.263Z,-1.14
2023-02-09T16:48:29.591Z,-1.31
2023-02-09T16:51:00.437Z,-1.14
2023-02-09T16:53:43.925Z,-1.03
2023-02-09T16:56:15.693Z,-1.28
2023-02-09T16:58:47.422Z,-1.27
2023-02-09T17:01:22.187Z,-1.30
2023-02-09T17:03:57.396Z,-1.34
2023-02-09T17:06:30.790Z,-1.19
2023-02-09T17:09:01.338Z,-1.40
2023-02-09T17:11:31.826Z,-1.44
2023-02-09T17:14:01.553Z,-1.42
2023-02-09T17:16:37.390Z,-1.55
2023-02-09T17:19:15.888Z,-1.37
2023-02-09T17:21:46.520Z,-1.40
2023-02-09T17:24:18.754Z,-1.51
2023-02-09T17:26:48.456Z,-1.56
2023-02-09T17:29:21.403Z,-1.54
2023-02-09T17:31:53.816Z,-1.74
2023-02-09T17:34:27.355Z,-1.91
2023-02-09T17:36:58.516Z,-2.04
2023-02-09T17:39:30.690Z,-1.99
2023-02-09T17:42:01.191Z,-2.09
2023-02-09T17:44:45.484Z,-2.02
2023-02-09T17:47:19.613Z,-1.88
2023-02-09T17:49:49.396Z,-1.77
2023-02-09T17:52:21.465Z,-1.78
2023-02-09T17:54:51.245Z,-2.04
2023-02-09T17:57:21.298Z,-2.18
2023-02-09T17:59:50.973Z,-2.02
2023-02-09T18:02:21.387Z,-2.25
2023-02-09T18:04:51.151Z,-2.33
2023-02-09T18:07:20.964Z,-2.24
2023-02-09T18:09:52.045Z,-2.13
2023-02-09T18:12:26.734Z,-2.30
2023-02-09T18:14:59.276Z,-2.23
2023-02-09T18:17:30.323Z,-2.23
2023-02-09T18:20:00.969Z,-2.05
2023-02-09T18:22:31.495Z,-2.11
2023-02-09T18:25:02.137Z,-2.04
2023-02-09T18:27:31.819Z,-2.19
2023-02-09T18:30:02.321Z,-2.30
2023-02-09T18:32:32.811Z,-2.17
2023-02-09T18:35:04.813Z,-2.40
2023-02-09T18:37:35.433Z,-2.45
2023-02-09T18:40:05.845Z,-2.45
2023-02-09T18:42:36.453Z,-2.64
2023-02-09T18:45:08.959Z,-2.69
2023-02-09T18:47:40.548Z,-2.53
2023-02-09T18:50:23.625Z,-2.73
2023-02-09T18:53:00.390Z,-2.84
2023-02-09T18:55:35.202Z,-3.15
2023-02-09T18:58:09.561Z,-3.17
2023-02-09T19:00:40.248Z,-3.22
2023-02-09T19:03:13.190Z,-3.07
2023-02-09T19:05:42.981Z,-3.15
2023-02-09T19:08:14.720Z,-3.29
2023-02-09T19:10:45.238Z,-3.12
2023-02-09T19:13:14.963Z,-3.19
2023-02-09T19:15:44.696Z,-3.40
2023-02-09T19:18:15.244Z,-3.44
2023-02-09T19:20:45.782Z,-3.46
2023-02-09T19:23:15.493Z,-3.55
2023-02-09T19:25:45.387Z,-3.40
2023-02-09T19:28:15.833Z,-3.73
2023-02-09T19:30:45.682Z,-3.62
2023-02-09T19:33:15.470Z,-3.51
2023-02-09T19:35:46.291Z,-3.56
2023-02-09T19:38:16.265Z,-3.62
2023-02-09T19:40:48.119Z,-3.64
2023-02-09T19:43:18.735Z,-3.85
2023-02-09T19:45:57.963Z,-3.86
2023-02-09T19:48:28.551Z,-3.74
2023-02-09T19:50:59.664Z,-3.81
2023-02-09T19:53:30.198Z,-3.82
2023-02-09T19:56:00.705Z,-3.79
2023-02-09T19:58:31.734Z,-3.72
2023-02-09T20:01:02.426Z,-3.81
2023-02-09T20:03:32.966Z,-4.10
2023-02-09T20:06:09.406Z,-4.08
2023-02-09T20:08:40.198Z,-4.09
2023-02-09T20:11:18.671Z,-4.27
2023-02-09T20:13:53.273Z,-4.08
2023-02-09T20:16:27.555Z,-4.30
2023-02-09T20:18:57.364Z,-4.00
2023-02-09T20:21:27.231Z,-4.28
2023-02-09T20:23:58.274Z,-4.21
2023-02-09T20:26:33.039Z,-4.34
2023-02-09T20:29:05.520Z,-4.36
2023-02-09T20:31:38.806Z,-4.32
2023-02-09T20:34:13.012Z,-4.34
2023-02-09T20:36:46.967Z,-4.29
2023-02-09T20:39:18.029Z,-4.32
2023-02-09T20:42:08.072Z,-4.12
2023-02-09T20:44:56.545Z,-4.30
2023-02-09T20:47:26.564Z,-4.47
2023-02-09T20:50:00.956Z,-4.60
2023-02-09T20:52:31.631Z,-4.47
2023-02-09T20:55:01.161Z,-4.58
2023-02-09T20:57:31.599Z,-4.84
2023-02-09T21:00:01.915Z,-5.05
2023-02-09T21:02:31.636Z,-5.17
2023-02-09T21:05:01.410Z,-5.05
2023-02-09T21:07:33.893Z,-5.22
2023-02-09T21:10:05.274Z,-5.12
2023-02-09T21:12:35.864Z,-4.94
2023-02-09T21:15:07.149Z,-5.00
2023-02-09T21:17:43.761Z,-5.09
2023-02-09T21:20:18.496Z,-4.94
2023-02-09T21:22:50.325Z,-4.97
2023-02-09T21:25:20.682Z,-4.90
2023-02-09T21:27:50.451Z,-5.04
2023-02-09T21:30:21.410Z,-4.83
2023-02-09T21:32:50.974Z,-4.77
2023-02-09T21:35:20.972Z,-5.07
2023-02-09T21:37:50.692Z,-4.91
2023-02-09T21:40:20.638Z,-4.99
2023-02-09T21:42:50.951Z,-5.07
2023-02-09T21:45:20.713Z,-5.19
2023-02-09T21:47:50.440Z,-5.18
2023-02-09T21:50:23.978Z,-5.24
2023-02-09T21:52:54.937Z,-5.28
2023-02-09T21:55:25.510Z,-5.20
2023-02-09T21:57:55.251Z,-5.00
2023-02-09T22:00:25.850Z,-5.02
2023-02-09T22:02:56.648Z,-5.19
2023-02-09T22:05:27.182Z,-5.34
2023-02-09T22:07:57.010Z,-5.57
2023-02-09T22:10:27.515Z,-5.13
2023-02-09T22:12:57.991Z,-5.57
2023-02-09T22:15:27.877Z,-5.43
2023-02-09T22:17:57.538Z,-5.61
2023-02-09T22:20:27.232Z,-5.57
2023-02-09T22:22:56.980Z,-6.17
2023-02-09T22:25:26.651Z,-6.15
2023-02-09T22:27:56.326Z,-6.26
2023-02-09T22:30:26.322Z,-6.13
2023-02-09T22:32:55.071Z,-6.24
2023-02-09T22:35:24.640Z,-6.26
2023-02-09T22:37:54.230Z,-6.12
2023-02-09T22:40:23.972Z,-6.26
2023-02-09T22:42:53.705Z,-5.89
2023-02-09T22:45:23.403Z,-5.84
2023-02-09T22:47:53.042Z,-5.69
2023-02-09T22:50:22.823Z,-5.55
2023-02-09T22:52:52.578Z,-6.08
2023-02-09T22:55:22.272Z,-5.99
2023-02-09T22:57:51.883Z,-6.03
2023-02-09T23:00:21.736Z,-6.11
2023-02-09T23:02:51.403Z,-6.32
2023-02-09T23:05:21.181Z,-6.47
2023-02-09T23:07:51.000Z,-6.36
2023-02-09T23:10:22.640Z,-6.15
2023-02-09T23:12:52.283Z,-6.33
2023-02-09T23:15:21.888Z,-6.21
2023-02-09T23:17:51.770Z,-6.01
2023-02-09T23:20:21.681Z,-6.22
2023-02-09T23:22:51.378Z,-6.19
2023-02-09T23:25:24.389Z,-6.37
2023-02-09T23:27:54.129Z,-6.27
2023-02-09T23:30:24.082Z,-6.58
2023-02-09T23:32:53.696Z,-6.47
2023-02-09T23:35:24.377Z,-6.73
2023-02-09T23:37:54.039Z,-6.64
2023-02-09T23:40:23.595Z,-6.40
2023-02-09T23:42:53.159Z,-6.14
2023-02-09T23:45:23.070Z,-6.42
2023-02-09T23:47:52.756Z,-6.14
2023-02-09T23:50:22.737Z,-6.48
2023-02-09T23:52:52.400Z,-6.57
2023-02-09T23:55:22.208Z,-6.24
2023-02-09T23:57:51.826Z,-6.22
